sensor_id;sensor_type;location;lat;lon;timestamp;P1;durP1;ratioP1;P2;durP2;ratioP2
63342;SDS011;49465;57.664;39.686;2024-02-21T00:00:20;2.75;;;1.48;;
63342;SDS011;49465;57.664;39.686;2024-02-21T00:02:57;2.88;;;1.92;;
63342;SDS011;49465;57.664;39.686;2024-02-21T00:05:30;2.97;;;1.15;;
63342;SDS011;49465;57.664;39.686;2024-02-21T00:07:58;1.55;;;1.27;;
63342;SDS011;49465;57.664;39.686;2024-02-21T00:10:30;2.45;;;1.52;;
63342;SDS011;49465;57.664;39.686;2024-02-21T00:13:01;4.82;;;1.85;;
63342;SDS011;49465;57.664;39.686;2024-02-21T00:15:35;4.78;;;1.70;;
63342;SDS011;49465;57.664;39.686;2024-02-21T00:18:12;2.10;;;1.08;;
63342;SDS011;49465;57.664;39.686;2024-02-21T00:20:44;4.43;;;2.30;;
63342;SDS011;49465;57.664;39.686;2024-02-21T00:23:16;3.90;;;1.83;;
63342;SDS011;49465;57.664;39.686;2024-02-21T00:25:47;6.10;;;2.47;;
63342;SDS011;49465;57.664;39.686;2024-02-21T00:28:16;6.30;;;2.80;;
63342;SDS011;49465;57.664;39.686;2024-02-21T00:31:06;5.30;;;2.58;;
63342;SDS011;49465;57.664;39.686;2024-02-21T00:33:42;5.68;;;1.80;;
63342;SDS011;49465;57.664;39.686;2024-02-21T00:36:13;5.25;;;2.45;;
63342;SDS011;49465;57.664;39.686;2024-02-21T00:38:48;4.82;;;2.42;;
63342;SDS011;49465;57.664;39.686;2024-02-21T00:41:20;7.78;;;2.90;;
63342;SDS011;49465;57.664;39.686;2024-02-21T00:43:51;3.67;;;1.77;;
63342;SDS011;49465;57.664;39.686;2024-02-21T00:46:18;5.20;;;1.83;;
63342;SDS011;49465;57.664;39.686;2024-02-21T00:48:51;5.72;;;2.60;;
63342;SDS011;49465;57.664;39.686;2024-02-21T00:51:20;5.82;;;1.85;;
63342;SDS011;49465;57.664;39.686;2024-02-21T00:53:50;7.70;;;2.05;;
63342;SDS011;49465;57.664;39.686;2024-02-21T00:56:19;6.68;;;2.13;;
63342;SDS011;49465;57.664;39.686;2024-02-21T00:58:57;5.15;;;2.72;;
63342;SDS011;49465;57.664;39.686;2024-02-21T01:01:30;4.40;;;1.65;;
63342;SDS011;49465;57.664;39.686;2024-02-21T01:03:58;4.63;;;1.85;;
63342;SDS011;49465;57.664;39.686;2024-02-21T01:06:38;4.40;;;2.03;;
63342;SDS011;49465;57.664;39.686;2024-02-21T01:09:13;8.07;;;2.58;;
63342;SDS011;49465;57.664;39.686;2024-02-21T01:11:49;6.43;;;3.20;;
63342;SDS011;49465;57.664;39.686;2024-02-21T01:14:21;13.05;;;5.25;;
63342;SDS011;49465;57.664;39.686;2024-02-21T01:16:50;5.75;;;2.10;;
63342;SDS011;49465;57.664;39.686;2024-02-21T01:19:27;8.43;;;3.38;;
63342;SDS011;49465;57.664;39.686;2024-02-21T01:21:59;5.00;;;1.95;;
63342;SDS011;49465;57.664;39.686;2024-02-21T01:24:32;8.75;;;2.60;;
63342;SDS011;49465;57.664;39.686;2024-02-21T01:27:03;17.70;;;6.72;;
63342;SDS011;49465;57.664;39.686;2024-02-21T01:29:33;7.45;;;3.30;;
63342;SDS011;49465;57.664;39.686;2024-02-21T01:32:01;6.82;;;3.08;;
63342;SDS011;49465;57.664;39.686;2024-02-21T01:34:31;4.95;;;2.65;;
63342;SDS011;49465;57.664;39.686;2024-02-21T01:37:03;5.57;;;2.35;;
63342;SDS011;49465;57.664;39.686;2024-02-21T01:39:32;7.68;;;3.30;;
63342;SDS011;49465;57.664;39.686;2024-02-21T01:42:02;5.05;;;2.08;;
63342;SDS011;49465;57.664;39.686;2024-02-21T01:44:34;3.10;;;1.67;;
63342;SDS011;49465;57.664;39.686;2024-02-21T01:47:03;6.13;;;2.20;;
63342;SDS011;49465;57.664;39.686;2024-02-21T01:49:30;5.93;;;1.58;;
63342;SDS011;49465;57.664;39.686;2024-02-21T01:51:56;3.15;;;1.40;;
63342;SDS011;49465;57.664;39.686;2024-02-21T01:54:26;9.32;;;4.38;;
63342;SDS011;49465;57.664;39.686;2024-02-21T01:57:01;8.50;;;2.85;;
63342;SDS011;49465;57.664;39.686;2024-02-21T01:59:31;9.63;;;2.83;;
63342;SDS011;49465;57.664;39.686;2024-02-21T02:02:00;8.13;;;3.30;;
63342;SDS011;49465;57.664;39.686;2024-02-21T02:04:32;7.30;;;2.60;;
63342;SDS011;49465;57.664;39.686;2024-02-21T02:07:01;4.72;;;2.53;;
63342;SDS011;49465;57.664;39.686;2024-02-21T02:09:33;8.98;;;2.72;;
63342;SDS011;49465;57.664;39.686;2024-02-21T02:12:00;8.20;;;3.30;;
63342;SDS011;49465;57.664;39.686;2024-02-21T02:14:33;5.47;;;2.28;;
63342;SDS011;49465;57.664;39.686;2024-02-21T02:17:04;14.45;;;4.88;;
63342;SDS011;49465;57.664;39.686;2024-02-21T02:19:35;7.53;;;2.60;;
63342;SDS011;49465;57.664;39.686;2024-02-21T02:22:09;5.05;;;2.08;;
63342;SDS011;49465;57.664;39.686;2024-02-21T02:24:48;3.88;;;1.73;;
63342;SDS011;49465;57.664;39.686;2024-02-21T02:27:20;5.25;;;2.00;;
63342;SDS011;49465;57.664;39.686;2024-02-21T02:29:51;2.65;;;1.77;;
63342;SDS011;49465;57.664;39.686;2024-02-21T02:32:20;3.25;;;1.20;;
63342;SDS011;49465;57.664;39.686;2024-02-21T02:34:49;4.47;;;2.08;;
63342;SDS011;49465;57.664;39.686;2024-02-21T02:37:22;2.67;;;1.60;;
63342;SDS011;49465;57.664;39.686;2024-02-21T02:39:51;3.30;;;1.83;;
63342;SDS011;49465;57.664;39.686;2024-02-21T02:42:23;5.10;;;1.50;;
63342;SDS011;49465;57.664;39.686;2024-02-21T02:44:52;2.17;;;1.35;;
63342;SDS011;49465;57.664;39.686;2024-02-21T02:47:25;3.92;;;1.65;;
63342;SDS011;49465;57.664;39.686;2024-02-21T02:49:57;3.53;;;1.55;;
63342;SDS011;49465;57.664;39.686;2024-02-21T02:52:29;2.30;;;0.80;;
63342;SDS011;49465;57.664;39.686;2024-02-21T02:54:58;3.40;;;1.65;;
63342;SDS011;49465;57.664;39.686;2024-02-21T02:57:27;5.03;;;2.40;;
63342;SDS011;49465;57.664;39.686;2024-02-21T02:59:54;3.70;;;1.70;;
63342;SDS011;49465;57.664;39.686;2024-02-21T03:02:27;3.20;;;1.70;;
63342;SDS011;49465;57.664;39.686;2024-02-21T03:05:00;3.30;;;1.33;;
63342;SDS011;49465;57.664;39.686;2024-02-21T03:07:37;3.72;;;1.83;;
63342;SDS011;49465;57.664;39.686;2024-02-21T03:10:07;3.60;;;1.55;;
63342;SDS011;49465;57.664;39.686;2024-02-21T03:12:36;2.75;;;1.42;;
63342;SDS011;49465;57.664;39.686;2024-02-21T03:15:03;4.65;;;1.92;;
63342;SDS011;49465;57.664;39.686;2024-02-21T03:17:35;7.22;;;2.95;;
63342;SDS011;49465;57.664;39.686;2024-02-21T03:20:05;6.15;;;3.38;;
63342;SDS011;49465;57.664;39.686;2024-02-21T03:22:38;3.17;;;1.40;;
63342;SDS011;49465;57.664;39.686;2024-02-21T03:25:10;4.85;;;1.88;;
63342;SDS011;49465;57.664;39.686;2024-02-21T03:27:40;4.10;;;1.75;;
63342;SDS011;49465;57.664;39.686;2024-02-21T03:30:14;2.65;;;1.48;;
63342;SDS011;49465;57.664;39.686;2024-02-21T03:32:45;3.15;;;1.60;;
63342;SDS011;49465;57.664;39.686;2024-02-21T03:35:17;4.63;;;1.63;;
63342;SDS011;49465;57.664;39.686;2024-02-21T03:37:46;3.45;;;1.85;;
63342;SDS011;49465;57.664;39.686;2024-02-21T03:40:18;23.38;;;16.92;;
63342;SDS011;49465;57.664;39.686;2024-02-21T03:42:51;7.47;;;2.83;;
63342;SDS011;49465;57.664;39.686;2024-02-21T03:45:20;7.55;;;2.70;;
63342;SDS011;49465;57.664;39.686;2024-02-21T03:47:52;14.82;;;4.18;;
63342;SDS011;49465;57.664;39.686;2024-02-21T03:50:21;6.13;;;2.70;;
63342;SDS011;49465;57.664;39.686;2024-02-21T03:52:52;7.72;;;2.47;;
63342;SDS011;49465;57.664;39.686;2024-02-21T03:55:24;4.13;;;2.05;;
63342;SDS011;49465;57.664;39.686;2024-02-21T03:57:53;6.20;;;2.28;;
63342;SDS011;49465;57.664;39.686;2024-02-21T04:00:25;8.20;;;3.33;;
63342;SDS011;49465;57.664;39.686;2024-02-21T04:02:52;7.40;;;2.05;;
63342;SDS011;49465;57.664;39.686;2024-02-21T04:05:23;4.95;;;2.53;;
63342;SDS011;49465;57.664;39.686;2024-02-21T04:07:58;10.02;;;3.85;;
63342;SDS011;49465;57.664;39.686;2024-02-21T04:10:32;6.35;;;3.33;;
63342;SDS011;49465;57.664;39.686;2024-02-21T04:13:02;6.57;;;2.38;;
63342;SDS011;49465;57.664;39.686;2024-02-21T04:15:35;7.38;;;2.22;;
63342;SDS011;49465;57.664;39.686;2024-02-21T04:18:04;5.57;;;2.28;;
63342;SDS011;49465;57.664;39.686;2024-02-21T04:20:34;2.20;;;1.50;;
63342;SDS011;49465;57.664;39.686;2024-02-21T04:23:03;7.65;;;2.05;;
63342;SDS011;49465;57.664;39.686;2024-02-21T04:25:30;5.45;;;2.60;;
63342;SDS011;49465;57.664;39.686;2024-02-21T04:27:59;7.90;;;3.38;;
63342;SDS011;49465;57.664;39.686;2024-02-21T04:30:31;2.60;;;1.67;;
63342;SDS011;49465;57.664;39.686;2024-02-21T04:33:02;4.20;;;1.42;;
63342;SDS011;49465;57.664;39.686;2024-02-21T04:35:32;6.05;;;1.08;;
63342;SDS011;49465;57.664;39.686;2024-02-21T04:38:01;3.58;;;1.35;;
63342;SDS011;49465;57.664;39.686;2024-02-21T04:40:30;2.58;;;1.27;;
63342;SDS011;49465;57.664;39.686;2024-02-21T04:43:01;2.35;;;1.17;;
63342;SDS011;49465;57.664;39.686;2024-02-21T04:45:30;4.40;;;1.70;;
63342;SDS011;49465;57.664;39.686;2024-02-21T04:47:59;2.70;;;2.08;;
63342;SDS011;49465;57.664;39.686;2024-02-21T04:50:28;5.45;;;1.88;;
63342;SDS011;49465;57.664;39.686;2024-02-21T04:52:57;5.57;;;1.77;;
63342;SDS011;49465;57.664;39.686;2024-02-21T04:55:28;2.38;;;1.55;;
63342;SDS011;49465;57.664;39.686;2024-02-21T04:58:00;5.55;;;1.67;;
63342;SDS011;49465;57.664;39.686;2024-02-21T05:00:29;2.35;;;1.65;;
63342;SDS011;49465;57.664;39.686;2024-02-21T05:02:59;6.00;;;1.95;;
63342;SDS011;49465;57.664;39.686;2024-02-21T05:05:39;5.90;;;1.92;;
63342;SDS011;49465;57.664;39.686;2024-02-21T05:08:09;5.10;;;2.90;;
63342;SDS011;49465;57.664;39.686;2024-02-21T05:10:41;4.07;;;1.55;;
63342;SDS011;49465;57.664;39.686;2024-02-21T05:13:16;3.67;;;1.30;;
63342;SDS011;49465;57.664;39.686;2024-02-21T05:15:48;3.60;;;1.48;;
63342;SDS011;49465;57.664;39.686;2024-02-21T05:18:15;1.80;;;1.20;;
63342;SDS011;49465;57.664;39.686;2024-02-21T05:20:41;4.20;;;1.75;;
63342;SDS011;49465;57.664;39.686;2024-02-21T05:23:11;3.35;;;1.17;;
63342;SDS011;49465;57.664;39.686;2024-02-21T05:25:45;5.15;;;1.55;;
63342;SDS011;49465;57.664;39.686;2024-02-21T05:28:22;2.35;;;1.20;;
63342;SDS011;49465;57.664;39.686;2024-02-21T05:31:04;5.25;;;1.75;;
63342;SDS011;49465;57.664;39.686;2024-02-21T05:33:33;2.35;;;1.58;;
63342;SDS011;49465;57.664;39.686;2024-02-21T05:36:08;1.85;;;1.25;;
63342;SDS011;49465;57.664;39.686;2024-02-21T05:38:39;1.95;;;1.02;;
63342;SDS011;49465;57.664;39.686;2024-02-21T05:41:08;3.53;;;1.98;;
63342;SDS011;49465;57.664;39.686;2024-02-21T05:43:37;2.95;;;1.42;;
63342;SDS011;49465;57.664;39.686;2024-02-21T05:46:11;4.13;;;1.98;;
63342;SDS011;49465;57.664;39.686;2024-02-21T05:48:44;6.20;;;1.92;;
63342;SDS011;49465;57.664;39.686;2024-02-21T05:51:15;5.13;;;1.65;;
63342;SDS011;49465;57.664;39.686;2024-02-21T05:53:51;1.80;;;1.38;;
63342;SDS011;49465;57.664;39.686;2024-02-21T05:56:20;4.35;;;1.88;;
63342;SDS011;49465;57.664;39.686;2024-02-21T05:58:54;3.90;;;2.38;;
63342;SDS011;49465;57.664;39.686;2024-02-21T06:01:21;4.22;;;1.98;;
63342;SDS011;49465;57.664;39.686;2024-02-21T06:03:53;2.17;;;1.13;;
63342;SDS011;49465;57.664;39.686;2024-02-21T06:06:25;1.67;;;1.33;;
63342;SDS011;49465;57.664;39.686;2024-02-21T06:08:55;10.68;;;3.35;;
63342;SDS011;49465;57.664;39.686;2024-02-21T06:11:27;6.93;;;2.13;;
63342;SDS011;49465;57.664;39.686;2024-02-21T06:13:59;3.85;;;1.75;;
63342;SDS011;49465;57.664;39.686;2024-02-21T06:16:37;4.65;;;2.05;;
63342;SDS011;49465;57.664;39.686;2024-02-21T06:19:06;2.35;;;1.52;;
63342;SDS011;49465;57.664;39.686;2024-02-21T06:21:47;10.05;;;3.75;;
63342;SDS011;49465;57.664;39.686;2024-02-21T06:24:21;2.38;;;1.40;;
63342;SDS011;49465;57.664;39.686;2024-02-21T06:26:56;2.55;;;1.48;;
63342;SDS011;49465;57.664;39.686;2024-02-21T06:29:28;4.88;;;1.48;;
63342;SDS011;49465;57.664;39.686;2024-02-21T06:31:57;4.82;;;1.70;;
63342;SDS011;49465;57.664;39.686;2024-02-21T06:34:29;4.57;;;1.45;;
63342;SDS011;49465;57.664;39.686;2024-02-21T06:37:07;3.35;;;1.83;;
63342;SDS011;49465;57.664;39.686;2024-02-21T06:39:38;5.05;;;2.03;;
63342;SDS011;49465;57.664;39.686;2024-02-21T06:42:10;3.35;;;1.50;;
63342;SDS011;49465;57.664;39.686;2024-02-21T06:44:43;1.45;;;0.80;;
63342;SDS011;49465;57.664;39.686;2024-02-21T06:47:13;2.10;;;1.38;;
63342;SDS011;49465;57.664;39.686;2024-02-21T06:49:48;3.05;;;1.02;;
63342;SDS011;49465;57.664;39.686;2024-02-21T06:52:19;4.35;;;1.83;;
63342;SDS011;49465;57.664;39.686;2024-02-21T06:54:50;16.23;;;11.18;;
63342;SDS011;49465;57.664;39.686;2024-02-21T06:57:19;9.38;;;3.83;;
63342;SDS011;49465;57.664;39.686;2024-02-21T06:59:53;4.80;;;2.03;;
63342;SDS011;49465;57.664;39.686;2024-02-21T07:02:25;2.38;;;1.30;;
63342;SDS011;49465;57.664;39.686;2024-02-21T07:04:59;2.97;;;1.55;;
63342;SDS011;49465;57.664;39.686;2024-02-21T07:10:08;5.30;;;2.45;;
63342;SDS011;49465;57.664;39.686;2024-02-21T07:12:39;4.85;;;1.77;;
63342;SDS011;49465;57.664;39.686;2024-02-21T07:15:10;3.53;;;1.60;;
63342;SDS011;49465;57.664;39.686;2024-02-21T07:17:45;2.35;;;1.45;;
63342;SDS011;49465;57.664;39.686;2024-02-21T07:20:17;2.22;;;1.13;;
63342;SDS011;49465;57.664;39.686;2024-02-21T07:22:48;2.90;;;1.30;;
63342;SDS011;49465;57.664;39.686;2024-02-21T07:25:20;2.75;;;1.33;;
63342;SDS011;49465;57.664;39.686;2024-02-21T07:28:07;2.28;;;1.10;;
63342;SDS011;49465;57.664;39.686;2024-02-21T07:30:39;2.20;;;1.13;;
63342;SDS011;49465;57.664;39.686;2024-02-21T07:33:13;2.92;;;1.42;;
63342;SDS011;49465;57.664;39.686;2024-02-21T07:35:48;3.85;;;1.80;;
63342;SDS011;49465;57.664;39.686;2024-02-21T07:38:19;1.55;;;1.00;;
63342;SDS011;49465;57.664;39.686;2024-02-21T07:40:53;4.28;;;1.90;;
63342;SDS011;49465;57.664;39.686;2024-02-21T07:43:29;3.22;;;1.70;;
63342;SDS011;49465;57.664;39.686;2024-02-21T07:46:01;3.67;;;1.52;;
63342;SDS011;49465;57.664;39.686;2024-02-21T07:48:38;3.30;;;1.63;;
63342;SDS011;49465;57.664;39.686;2024-02-21T07:51:10;3.70;;;1.75;;
63342;SDS011;49465;57.664;39.686;2024-02-21T07:53:44;4.88;;;2.30;;
63342;SDS011;49465;57.664;39.686;2024-02-21T07:56:27;4.57;;;1.88;;
63342;SDS011;49465;57.664;39.686;2024-02-21T07:59:01;5.40;;;1.60;;
63342;SDS011;49465;57.664;39.686;2024-02-21T08:01:34;5.00;;;2.15;;
63342;SDS011;49465;57.664;39.686;2024-02-21T08:04:06;2.83;;;1.58;;
63342;SDS011;49465;57.664;39.686;2024-02-21T08:06:40;7.00;;;3.05;;
63342;SDS011;49465;57.664;39.686;2024-02-21T08:09:15;3.55;;;1.60;;
63342;SDS011;49465;57.664;39.686;2024-02-21T08:11:52;5.68;;;2.42;;
63342;SDS011;49465;57.664;39.686;2024-02-21T08:14:19;4.55;;;1.60;;
63342;SDS011;49465;57.664;39.686;2024-02-21T08:16:46;6.88;;;2.45;;
63342;SDS011;49465;57.664;39.686;2024-02-21T08:21:52;6.07;;;2.67;;
63342;SDS011;49465;57.664;39.686;2024-02-21T08:24:34;4.00;;;1.75;;
63342;SDS011;49465;57.664;39.686;2024-02-21T08:27:13;4.75;;;1.73;;
63342;SDS011;49465;57.664;39.686;2024-02-21T08:29:48;4.07;;;2.05;;
63342;SDS011;49465;57.664;39.686;2024-02-21T08:32:23;1.98;;;1.27;;
63342;SDS011;49465;57.664;39.686;2024-02-21T08:35:01;5.75;;;2.20;;
63342;SDS011;49465;57.664;39.686;2024-02-21T08:37:38;5.00;;;2.08;;
63342;SDS011;49465;57.664;39.686;2024-02-21T08:40:12;4.68;;;2.30;;
63342;SDS011;49465;57.664;39.686;2024-02-21T08:42:42;6.75;;;1.63;;
63342;SDS011;49465;57.664;39.686;2024-02-21T08:45:18;4.95;;;2.92;;
63342;SDS011;49465;57.664;39.686;2024-02-21T08:47:53;7.45;;;2.63;;
63342;SDS011;49465;57.664;39.686;2024-02-21T08:50:26;8.00;;;2.97;;
63342;SDS011;49465;57.664;39.686;2024-02-21T08:53:09;7.75;;;2.28;;
63342;SDS011;49465;57.664;39.686;2024-02-21T08:55:42;8.02;;;3.10;;
63342;SDS011;49465;57.664;39.686;2024-02-21T08:58:23;15.43;;;10.27;;
63342;SDS011;49465;57.664;39.686;2024-02-21T09:01:07;10.98;;;3.88;;
63342;SDS011;49465;57.664;39.686;2024-02-21T09:03:46;8.38;;;4.22;;
63342;SDS011;49465;57.664;39.686;2024-02-21T09:06:21;8.10;;;3.22;;
63342;SDS011;49465;57.664;39.686;2024-02-21T09:08:56;13.57;;;4.70;;
63342;SDS011;49465;57.664;39.686;2024-02-21T09:11:36;10.57;;;3.72;;
63342;SDS011;49465;57.664;39.686;2024-02-21T09:14:17;9.30;;;4.15;;
63342;SDS011;49465;57.664;39.686;2024-02-21T09:17:02;7.80;;;2.70;;
63342;SDS011;49465;57.664;39.686;2024-02-21T09:19:40;14.18;;;9.55;;
63342;SDS011;49465;57.664;39.686;2024-02-21T09:22:23;11.10;;;4.60;;
63342;SDS011;49465;57.664;39.686;2024-02-21T09:24:50;5.93;;;3.25;;
63342;SDS011;49465;57.664;39.686;2024-02-21T09:27:27;10.32;;;4.53;;
63342;SDS011;49465;57.664;39.686;2024-02-21T09:30:05;8.77;;;3.97;;
63342;SDS011;49465;57.664;39.686;2024-02-21T09:32:40;8.75;;;3.20;;
63342;SDS011;49465;57.664;39.686;2024-02-21T09:35:21;8.50;;;3.17;;
63342;SDS011;49465;57.664;39.686;2024-02-21T09:37:55;5.35;;;2.55;;
63342;SDS011;49465;57.664;39.686;2024-02-21T09:40:38;5.65;;;2.45;;
63342;SDS011;49465;57.664;39.686;2024-02-21T09:43:10;10.00;;;8.15;;
63342;SDS011;49465;57.664;39.686;2024-02-21T09:45:46;8.90;;;3.33;;
63342;SDS011;49465;57.664;39.686;2024-02-21T09:48:26;10.93;;;8.45;;
63342;SDS011;49465;57.664;39.686;2024-02-21T09:51:09;7.45;;;2.63;;
63342;SDS011;49465;57.664;39.686;2024-02-21T09:53:47;11.40;;;8.10;;
63342;SDS011;49465;57.664;39.686;2024-02-21T09:56:18;3.00;;;1.80;;
63342;SDS011;49465;57.664;39.686;2024-02-21T09:59:02;8.48;;;3.50;;
63342;SDS011;49465;57.664;39.686;2024-02-21T10:01:35;11.80;;;8.85;;
63342;SDS011;49465;57.664;39.686;2024-02-21T10:04:10;6.25;;;2.55;;
63342;SDS011;49465;57.664;39.686;2024-02-21T10:06:46;5.57;;;2.60;;
63342;SDS011;49465;57.664;39.686;2024-02-21T10:12:16;7.22;;;2.47;;
63342;SDS011;49465;57.664;39.686;2024-02-21T10:14:47;8.10;;;3.03;;
63342;SDS011;49465;57.664;39.686;2024-02-21T10:17:18;6.43;;;2.42;;
63342;SDS011;49465;57.664;39.686;2024-02-21T10:19:54;6.70;;;2.90;;
63342;SDS011;49465;57.664;39.686;2024-02-21T10:22:37;1.75;;;0.93;;
63342;SDS011;49465;57.664;39.686;2024-02-21T10:25:13;5.55;;;2.10;;
63342;SDS011;49465;57.664;39.686;2024-02-21T10:27:47;6.10;;;3.00;;
63342;SDS011;49465;57.664;39.686;2024-02-21T10:30:37;11.18;;;8.10;;
63342;SDS011;49465;57.664;39.686;2024-02-21T10:33:20;10.57;;;8.13;;
63342;SDS011;49465;57.664;39.686;2024-02-21T10:35:49;10.23;;;7.82;;
63342;SDS011;49465;57.664;39.686;2024-02-21T10:38:22;9.15;;;7.78;;
63342;SDS011;49465;57.664;39.686;2024-02-21T10:40:59;8.45;;;3.50;;
63342;SDS011;49465;57.664;39.686;2024-02-21T10:43:39;7.20;;;3.17;;
63342;SDS011;49465;57.664;39.686;2024-02-21T10:46:20;9.40;;;7.45;;
63342;SDS011;49465;57.664;39.686;2024-02-21T10:49:16;11.18;;;4.30;;
63342;SDS011;49465;57.664;39.686;2024-02-21T10:52:14;9.20;;;7.78;;
63342;SDS011;49465;57.664;39.686;2024-02-21T10:54:59;6.85;;;2.80;;
63342;SDS011;49465;57.664;39.686;2024-02-21T10:57:42;9.65;;;7.30;;
63342;SDS011;49465;57.664;39.686;2024-02-21T11:00:18;6.00;;;2.85;;
63342;SDS011;49465;57.664;39.686;2024-02-21T11:02:58;6.68;;;3.30;;
63342;SDS011;49465;57.664;39.686;2024-02-21T11:05:31;9.88;;;7.75;;
63342;SDS011;49465;57.664;39.686;2024-02-21T11:08:13;9.40;;;7.70;;
63342;SDS011;49465;57.664;39.686;2024-02-21T11:10:56;5.28;;;2.55;;
63342;SDS011;49465;57.664;39.686;2024-02-21T11:13:35;7.53;;;3.05;;
63342;SDS011;49465;57.664;39.686;2024-02-21T11:16:22;6.78;;;2.85;;
63342;SDS011;49465;57.664;39.686;2024-02-21T11:18:54;9.38;;;7.45;;
63342;SDS011;49465;57.664;39.686;2024-02-21T11:21:41;10.90;;;8.07;;
63342;SDS011;49465;57.664;39.686;2024-02-21T11:24:32;4.40;;;2.38;;
63342;SDS011;49465;57.664;39.686;2024-02-21T11:27:24;10.55;;;7.65;;
63342;SDS011;49465;57.664;39.686;2024-02-21T11:29:59;8.85;;;7.25;;
63342;SDS011;49465;57.664;39.686;2024-02-21T11:32:34;9.23;;;7.20;;
63342;SDS011;49465;57.664;39.686;2024-02-21T11:35:06;10.07;;;7.78;;
63342;SDS011;49465;57.664;39.686;2024-02-21T11:37:41;9.45;;;7.72;;
63342;SDS011;49465;57.664;39.686;2024-02-21T11:40:15;10.43;;;8.00;;
63342;SDS011;49465;57.664;39.686;2024-02-21T11:42:52;10.18;;;7.53;;
63342;SDS011;49465;57.664;39.686;2024-02-21T11:45:32;5.68;;;2.50;;
63342;SDS011;49465;57.664;39.686;2024-02-21T11:48:10;10.05;;;7.90;;
63342;SDS011;49465;57.664;39.686;2024-02-21T11:50:52;10.77;;;8.30;;
63342;SDS011;49465;57.664;39.686;2024-02-21T11:53:28;10.07;;;8.07;;
63342;SDS011;49465;57.664;39.686;2024-02-21T11:56:00;10.57;;;8.20;;
63342;SDS011;49465;57.664;39.686;2024-02-21T11:58:38;10.02;;;8.07;;
63342;SDS011;49465;57.664;39.686;2024-02-21T12:01:13;9.57;;;7.60;;
63342;SDS011;49465;57.664;39.686;2024-02-21T12:03:49;10.40;;;8.07;;
63342;SDS011;49465;57.664;39.686;2024-02-21T12:06:25;9.57;;;8.05;;
63342;SDS011;49465;57.664;39.686;2024-02-21T12:08:59;10.52;;;7.85;;
63342;SDS011;49465;57.664;39.686;2024-02-21T12:11:29;9.10;;;7.40;;
63342;SDS011;49465;57.664;39.686;2024-02-21T12:14:02;8.98;;;7.43;;
63342;SDS011;49465;57.664;39.686;2024-02-21T12:16:44;9.30;;;7.38;;
63342;SDS011;49465;57.664;39.686;2024-02-21T12:19:15;9.20;;;7.50;;
63342;SDS011;49465;57.664;39.686;2024-02-21T12:21:45;9.75;;;6.93;;
63342;SDS011;49465;57.664;39.686;2024-02-21T12:24:26;8.90;;;7.40;;
63342;SDS011;49465;57.664;39.686;2024-02-21T12:27:06;5.68;;;2.80;;
63342;SDS011;49465;57.664;39.686;2024-02-21T12:29:38;8.43;;;6.95;;
63342;SDS011;49465;57.664;39.686;2024-02-21T12:32:09;9.80;;;7.10;;
63342;SDS011;49465;57.664;39.686;2024-02-21T12:34:41;9.63;;;6.93;;
63342;SDS011;49465;57.664;39.686;2024-02-21T12:37:16;6.85;;;2.95;;
63342;SDS011;49465;57.664;39.686;2024-02-21T12:39:47;8.60;;;6.75;;
63342;SDS011;49465;57.664;39.686;2024-02-21T12:42:22;9.05;;;7.13;;
63342;SDS011;49465;57.664;39.686;2024-02-21T12:44:55;10.60;;;7.32;;
63342;SDS011;49465;57.664;39.686;2024-02-21T12:47:28;12.32;;;8.13;;
63342;SDS011;49465;57.664;39.686;2024-02-21T12:50:02;11.88;;;7.97;;
63342;SDS011;49465;57.664;39.686;2024-02-21T12:52:40;9.70;;;7.32;;
63342;SDS011;49465;57.664;39.686;2024-02-21T12:55:11;9.40;;;7.20;;
63342;SDS011;49465;57.664;39.686;2024-02-21T12:57:55;8.48;;;7.30;;
63342;SDS011;49465;57.664;39.686;2024-02-21T13:00:39;10.45;;;7.32;;
63342;SDS011;49465;57.664;39.686;2024-02-21T13:03:11;11.52;;;7.75;;
63342;SDS011;49465;57.664;39.686;2024-02-21T13:05:45;9.90;;;7.20;;
63342;SDS011;49465;57.664;39.686;2024-02-21T13:08:17;9.80;;;7.47;;
63342;SDS011;49465;57.664;39.686;2024-02-21T13:10:55;9.80;;;7.70;;
63342;SDS011;49465;57.664;39.686;2024-02-21T13:13:30;8.77;;;7.25;;
63342;SDS011;49465;57.664;39.686;2024-02-21T13:16:04;11.02;;;7.93;;
63342;SDS011;49465;57.664;39.686;2024-02-21T13:18:42;9.52;;;7.43;;
63342;SDS011;49465;57.664;39.686;2024-02-21T13:21:15;9.32;;;6.78;;
63342;SDS011;49465;57.664;39.686;2024-02-21T13:23:52;8.75;;;6.78;;
63342;SDS011;49465;57.664;39.686;2024-02-21T13:26:30;8.60;;;6.43;;
63342;SDS011;49465;57.664;39.686;2024-02-21T13:29:06;9.85;;;7.35;;
63342;SDS011;49465;57.664;39.686;2024-02-21T13:31:38;10.10;;;7.70;;
63342;SDS011;49465;57.664;39.686;2024-02-21T13:34:09;9.82;;;7.50;;
63342;SDS011;49465;57.664;39.686;2024-02-21T13:36:46;9.27;;;6.57;;
63342;SDS011;49465;57.664;39.686;2024-02-21T13:39:20;9.35;;;6.50;;
63342;SDS011;49465;57.664;39.686;2024-02-21T13:41:54;8.35;;;6.70;;
63342;SDS011;49465;57.664;39.686;2024-02-21T13:44:21;10.07;;;6.55;;
63342;SDS011;49465;57.664;39.686;2024-02-21T13:46:56;9.68;;;6.35;;
63342;SDS011;49465;57.664;39.686;2024-02-21T13:49:28;9.73;;;6.28;;
63342;SDS011;49465;57.664;39.686;2024-02-21T13:52:04;9.05;;;6.55;;
63342;SDS011;49465;57.664;39.686;2024-02-21T13:54:34;8.75;;;6.82;;
63342;SDS011;49465;57.664;39.686;2024-02-21T13:57:09;8.55;;;6.72;;
63342;SDS011;49465;57.664;39.686;2024-02-21T13:59:46;8.60;;;6.80;;
63342;SDS011;49465;57.664;39.686;2024-02-21T14:02:29;10.80;;;7.30;;
63342;SDS011;49465;57.664;39.686;2024-02-21T14:05:01;8.05;;;6.72;;
63342;SDS011;49465;57.664;39.686;2024-02-21T14:07:36;9.60;;;7.20;;
63342;SDS011;49465;57.664;39.686;2024-02-21T14:10:17;4.65;;;2.25;;
63342;SDS011;49465;57.664;39.686;2024-02-21T14:12:57;10.52;;;7.63;;
63342;SDS011;49465;57.664;39.686;2024-02-21T14:15:48;10.73;;;7.70;;
63342;SDS011;49465;57.664;39.686;2024-02-21T14:20:52;9.85;;;7.38;;
63342;SDS011;49465;57.664;39.686;2024-02-21T14:23:24;11.02;;;8.00;;
63342;SDS011;49465;57.664;39.686;2024-02-21T14:25:58;12.80;;;8.63;;
63342;SDS011;49465;57.664;39.686;2024-02-21T14:28:42;9.77;;;4.32;;
63342;SDS011;49465;57.664;39.686;2024-02-21T14:31:22;10.75;;;4.63;;
63342;SDS011;49465;57.664;39.686;2024-02-21T14:33:56;8.65;;;6.93;;
63342;SDS011;49465;57.664;39.686;2024-02-21T14:36:33;9.82;;;7.18;;
63342;SDS011;49465;57.664;39.686;2024-02-21T14:39:08;10.65;;;7.55;;
63342;SDS011;49465;57.664;39.686;2024-02-21T14:41:34;12.73;;;7.20;;
63342;SDS011;49465;57.664;39.686;2024-02-21T14:44:04;9.88;;;7.07;;
63342;SDS011;49465;57.664;39.686;2024-02-21T14:46:38;9.13;;;6.75;;
63342;SDS011;49465;57.664;39.686;2024-02-21T14:49:07;9.35;;;6.97;;
63342;SDS011;49465;57.664;39.686;2024-02-21T14:51:39;9.88;;;6.93;;
63342;SDS011;49465;57.664;39.686;2024-02-21T14:54:08;9.40;;;6.90;;
63342;SDS011;49465;57.664;39.686;2024-02-21T14:56:48;8.98;;;7.20;;
63342;SDS011;49465;57.664;39.686;2024-02-21T14:59:22;8.75;;;6.88;;
63342;SDS011;49465;57.664;39.686;2024-02-21T15:02:07;8.43;;;7.18;;
63342;SDS011;49465;57.664;39.686;2024-02-21T15:04:39;9.48;;;7.10;;
63342;SDS011;49465;57.664;39.686;2024-02-21T15:07:20;10.43;;;7.68;;
63342;SDS011;49465;57.664;39.686;2024-02-21T15:10:00;9.10;;;7.45;;
63342;SDS011;49465;57.664;39.686;2024-02-21T15:12:45;8.00;;;6.72;;
63342;SDS011;49465;57.664;39.686;2024-02-21T15:15:23;9.65;;;7.20;;
63342;SDS011;49465;57.664;39.686;2024-02-21T15:17:58;8.73;;;6.78;;
63342;SDS011;49465;57.664;39.686;2024-02-21T15:20:48;9.82;;;7.03;;
63342;SDS011;49465;57.664;39.686;2024-02-21T15:23:28;8.82;;;6.97;;